Time;durP1;ratioP1;P1;durP2;ratioP2;P2;SDS_P1;SDS_P2;PMS_P1;PMS_P2;Temp;Humidity;BMP_temperature;BMP_pressure;BME280_temperature;BME280_humidity;BME280_pressure;Samples;Min_cycle;Max_cycle;Signal;HPM_P1;HPM_P2
2021/12/08 00:01:51;;;;;;;39.23;20.07;;;2.00;99.90;;;;;;5083409;28;20187;-65
2021/12/08 00:04:17;;;;;;;39.63;20.63;;;1.90;99.90;;;;;;5080542;28;20172;-67
2021/12/08 00:06:42;;;;;;;43.67;21.73;;;1.90;99.90;;;;;;5088413;28;20199;-69
2021/12/08 00:09:48;;;;;;;51.57;22.57;;;1.90;99.90;;;;;;5091171;28;20244;-67
2021/12/08 00:14:44;;;;;;;46.30;21.73;;;1.90;99.90;;;;;;5102946;28;20255;-72
2021/12/08 00:17:09;;;;;;;49.87;22.00;;;1.90;99.90;;;;;;5102929;28;20261;-67
2021/12/08 00:19:35;;;;;;;42.93;20.17;;;1.90;99.90;;;;;;5099740;28;20175;-68
2021/12/08 00:22:01;;;;;;;46.77;22.63;;;1.80;99.90;;;;;;5101304;28;20179;-68
2021/12/08 00:24:27;;;;;;;49.23;21.50;;;1.80;99.90;;;;;;5106016;28;20182;-65
2021/12/08 00:26:54;;;;;;;48.17;22.13;;;1.80;99.90;;;;;;5080786;28;20288;-68
2021/12/08 00:29:20;;;;;;;44.70;20.47;;;1.80;99.90;;;;;;5087732;28;20186;-67
2021/12/08 00:31:47;;;;;;;47.43;22.37;;;1.80;99.90;;;;;;5080544;28;20638;-65
2021/12/08 00:34:13;;;;;;;43.53;21.67;;;1.80;99.90;;;;;;5099997;28;20309;-67
2021/12/08 00:36:43;;;;;;;51.27;23.10;;;1.80;99.90;;;;;;5087431;28;20194;-67
2021/12/08 00:39:10;;;;;;;47.10;21.73;;;1.70;99.90;;;;;;5088711;28;20175;-68
2021/12/08 00:41:35;;;;;;;46.47;23.07;;;1.70;99.90;;;;;;5082972;28;20607;-67
2021/12/08 00:44:01;;;;;;;46.30;21.23;;;1.70;99.90;;;;;;5085516;28;20201;-68
2021/12/08 00:46:27;;;;;;;48.43;21.70;;;1.70;99.90;;;;;;5102032;28;20200;-69
2021/12/08 00:48:53;;;;;;;46.23;22.50;;;1.70;99.90;;;;;;5099925;28;20178;-66
2021/12/08 00:51:19;;;;;;;47.57;21.47;;;1.70;99.90;;;;;;5098509;28;20197;-65
2021/12/08 00:53:46;;;;;;;49.03;23.07;;;1.70;99.90;;;;;;5103586;28;20193;-66
2021/12/08 00:56:12;;;;;;;42.67;22.00;;;1.70;99.90;;;;;;5090233;28;20174;-67
2021/12/08 00:58:38;;;;;;;49.37;22.43;;;1.80;99.90;;;;;;5087912;28;20497;-66
2021/12/08 01:01:06;;;;;;;40.47;21.10;;;1.90;99.90;;;;;;5087371;28;20187;-66
2021/12/08 01:03:32;;;;;;;43.00;18.73;;;1.90;99.90;;;;;;5066669;28;20186;-67
2021/12/08 01:05:57;;;;;;;42.27;20.13;;;1.90;99.90;;;;;;5074015;28;20179;-67
2021/12/08 01:08:25;;;;;;;45.63;22.23;;;2.00;99.90;;;;;;5088363;28;20205;-67
2021/12/08 01:10:56;;;;;;;43.43;21.30;;;2.00;99.90;;;;;;5094562;28;20692;-67
2021/12/08 01:13:23;;;;;;;42.20;20.07;;;2.00;99.90;;;;;;5090746;28;20482;-66
2021/12/08 01:15:54;;;;;;;40.30;20.13;;;2.00;99.90;;;;;;5078461;28;20180;-69
2021/12/08 01:18:24;;;;;;;42.77;20.10;;;2.10;99.90;;;;;;5090569;28;20189;-69
2021/12/08 01:20:54;;;;;;;36.57;18.43;;;2.10;99.90;;;;;;5082690;28;20597;-70
2021/12/08 01:23:20;;;;;;;35.27;18.70;;;2.10;99.90;;;;;;5090902;28;20186;-66
2021/12/08 01:25:46;;;;;;;37.97;18.77;;;2.00;99.90;;;;;;5093413;28;20190;-65
2021/12/08 01:28:14;;;;;;;36.30;17.87;;;2.10;99.90;;;;;;5093572;28;20216;-67
2021/12/08 01:30:40;;;;;;;37.67;18.67;;;2.00;99.90;;;;;;5096050;28;20182;-66
2021/12/08 01:33:06;;;;;;;34.23;17.97;;;2.00;99.90;;;;;;5094729;28;20189;-68
2021/12/08 01:35:31;;;;;;;37.60;18.37;;;2.10;99.90;;;;;;5089148;28;20226;-67
2021/12/08 01:37:57;;;;;;;36.33;19.03;;;2.10;99.90;;;;;;5084232;28;20186;-66
2021/12/08 01:40:23;;;;;;;36.73;18.03;;;2.10;99.90;;;;;;5084877;28;20182;-66
2021/12/08 01:42:52;;;;;;;36.30;18.90;;;2.10;99.90;;;;;;5090300;28;20174;-67
2021/12/08 01:48:10;;;;;;;41.63;20.17;;;2.10;99.90;;;;;;5082889;28;20272;-66
2021/12/08 01:50:37;;;;;;;38.83;18.83;;;2.10;99.90;;;;;;5099099;28;20633;-69
2021/12/08 01:53:05;;;;;;;45.87;18.20;;;2.10;99.90;;;;;;5109629;28;20190;-66
2021/12/08 01:55:31;;;;;;;36.40;18.30;;;2.20;99.90;;;;;;5083944;28;20183;-68
2021/12/08 01:57:56;;;;;;;37.87;17.37;;;2.20;99.90;;;;;;5087283;28;20237;-67
2021/12/08 02:00:28;;;;;;;29.07;15.70;;;2.30;99.90;;;;;;5077967;28;20265;-68
2021/12/08 02:02:53;;;;;;;31.37;16.10;;;2.30;99.90;;;;;;5084047;28;20672;-65
2021/12/08 02:05:19;;;;;;;39.57;17.90;;;2.30;99.90;;;;;;5084450;28;20186;-66
2021/12/08 02:07:45;;;;;;;30.67;16.80;;;2.40;99.90;;;;;;5083065;28;20203;-66
2021/12/08 02:10:11;;;;;;;30.83;15.97;;;2.40;99.90;;;;;;5063480;28;20190;-65
2021/12/08 02:12:40;;;;;;;36.00;18.00;;;2.40;99.90;;;;;;5085846;28;20266;-66
2021/12/08 02:15:10;;;;;;;30.10;16.33;;;2.50;99.90;;;;;;5081497;28;20174;-67
2021/12/08 02:17:36;;;;;;;32.23;16.93;;;2.50;99.90;;;;;;5090463;28;20183;-66
2021/12/08 02:20:06;;;;;;;32.93;16.37;;;2.40;99.90;;;;;;5077430;28;20188;-67
2021/12/08 02:22:32;;;;;;;31.07;15.83;;;2.40;99.90;;;;;;5072499;28;20187;-67
2021/12/08 02:24:57;;;;;;;32.07;16.73;;;2.50;99.90;;;;;;5077216;28;20175;-66
2021/12/08 02:27:23;;;;;;;29.40;15.70;;;2.40;99.90;;;;;;5087369;28;20210;-67
2021/12/08 02:29:59;;;;;;;29.47;14.90;;;2.30;99.90;;;;;;5089858;28;20194;-65
2021/12/08 02:48:29;;;;;;;32.80;17.13;;;2.20;99.90;;;;;;5084453;28;20263;-67
2021/12/08 02:50:56;;;;;;;27.23;16.43;;;2.20;99.90;;;;;;5090357;28;20187;-66
2021/12/08 02:53:23;;;;;;;31.80;17.03;;;2.30;99.90;;;;;;5075745;28;20278;-67
2021/12/08 02:55:48;;;;;;;31.23;16.17;;;2.30;99.90;;;;;;5088225;28;20175;-65
2021/12/08 02:58:16;;;;;;;30.60;16.03;;;2.30;99.90;;;;;;5098618;28;20621;-71
2021/12/08 03:00:55;;;;;;;30.13;15.10;;;2.30;99.90;;;;;;5090750;28;20255;-65
2021/12/08 03:03:21;;;;;;;27.43;15.27;;;2.30;99.90;;;;;;5093560;28;20176;-64
2021/12/08 03:05:47;;;;;;;31.63;16.23;;;2.40;99.90;;;;;;5094652;28;20187;-66
2021/12/08 03:08:13;;;;;;;27.47;15.43;;;2.40;99.90;;;;;;5068382;28;20202;-67
2021/12/08 03:10:45;;;;;;;29.10;14.80;;;2.50;99.90;;;;;;5096290;28;20201;-66
2021/12/08 03:13:12;;;;;;;30.90;15.20;;;2.40;99.90;;;;;;5090039;28;20177;-65
2021/12/08 03:15:39;;;;;;;26.13;13.97;;;2.40;99.90;;;;;;5073014;28;20182;-66
2021/12/08 03:18:04;;;;;;;25.07;14.93;;;2.40;99.90;;;;;;5086672;28;20187;-65
2021/12/08 03:20:45;;;;;;;27.57;15.40;;;2.40;99.90;;;;;;5099314;28;20244;-68
2021/12/08 03:23:15;;;;;;;24.30;13.37;;;2.40;99.90;;;;;;5085097;28;20174;-67
2021/12/08 03:25:44;;;;;;;24.83;14.00;;;2.40;99.90;;;;;;5089736;28;20174;-66
2021/12/08 03:28:18;;;;;;;26.73;14.93;;;2.40;99.90;;;;;;5089986;28;20210;-66
2021/12/08 03:31:19;;;;;;;29.70;14.00;;;2.40;99.90;;;;;;5089641;28;20207;-67
2021/12/08 03:33:35;;;;;;;24.40;14.17;;;2.40;99.90;;;;;;5089178;28;20682;-65
2021/12/08 03:36:02;;;;;;;25.43;13.97;;;2.40;99.90;;;;;;5084271;28;20224;-65
2021/12/08 03:38:29;;;;;;;28.50;14.53;;;2.40;99.90;;;;;;5089399;28;20193;-67
2021/12/08 03:40:57;;;;;;;28.37;15.20;;;2.50;99.90;;;;;;5091324;28;20588;-66
2021/12/08 03:43:23;;;;;;;25.30;13.73;;;2.50;99.90;;;;;;5087805;28;20178;-65
2021/12/08 03:45:50;;;;;;;23.13;13.93;;;2.50;99.90;;;;;;5103103;28;20742;-68
2021/12/08 03:48:24;;;;;;;24.20;13.30;;;2.60;99.90;;;;;;5097455;28;21719;-68
2021/12/08 03:50:51;;;;;;;25.47;13.83;;;2.50;99.90;;;;;;5099586;28;20535;-69
2021/12/08 03:53:17;;;;;;;23.50;13.37;;;2.50;99.90;;;;;;5099996;28;20170;-66
2021/12/08 03:55:45;;;;;;;24.50;13.77;;;2.50;99.90;;;;;;5096035;28;20171;-68
2021/12/08 03:58:12;;;;;;;18.40;11.63;;;2.50;99.90;;;;;;5098781;28;20189;-73
2021/12/08 04:00:38;;;;;;;25.20;12.40;;;2.50;99.90;;;;;;5104944;28;20614;-67
2021/12/08 04:03:06;;;;;;;22.73;12.17;;;2.50;99.90;;;;;;5086779;28;20260;-66
2021/12/08 04:05:51;;;;;;;20.67;12.50;;;2.50;99.90;;;;;;5088335;28;20186;-65
2021/12/08 04:08:20;;;;;;;22.60;13.67;;;2.50;99.90;;;;;;5084151;28;20707;-68
2021/12/08 04:10:50;;;;;;;22.67;11.83;;;2.50;99.90;;;;;;5104709;28;20175;-67
2021/12/08 04:13:20;;;;;;;22.10;12.27;;;2.50;99.90;;;;;;5089902;28;20266;-66
2021/12/08 04:15:46;;;;;;;22.70;13.57;;;2.50;99.90;;;;;;5081249;28;20620;-67
2021/12/08 04:18:12;;;;;;;21.30;12.83;;;2.50;99.90;;;;;;5081315;28;20208;-73
2021/12/08 04:20:49;;;;;;;22.57;13.10;;;2.50;99.90;;;;;;5090800;28;20561;-65
2021/12/08 04:23:17;;;;;;;23.97;12.80;;;2.50;99.90;;;;;;5078347;28;20182;-66
2021/12/08 04:25:48;;;;;;;24.00;12.27;;;2.50;99.90;;;;;;5083296;28;20182;-66
2021/12/08 04:28:21;;;;;;;21.80;12.73;;;2.50;99.90;;;;;;5081242;28;20203;-66
2021/12/08 04:30:52;;;;;;;24.53;13.63;;;2.50;99.90;;;;;;5088932;28;20208;-68
2021/12/08 04:33:18;;;;;;;25.63;14.13;;;2.40;99.90;;;;;;5106638;28;20203;-67
2021/12/08 04:35:47;;;;;;;24.97;13.07;;;2.40;99.90;;;;;;5089335;28;20245;-67
2021/12/08 04:38:22;;;;;;;26.80;14.43;;;2.30;99.90;;;;;;5081861;28;20551;-66
2021/12/08 04:41:07;;;;;;;21.30;12.80;;;2.40;99.90;;;;;;5102428;28;20250;-66
2021/12/08 04:43:55;;;;;;;26.07;13.90;;;2.40;99.90;;;;;;5087463;28;20205;-67
2021/12/08 04:50:23;;;;;;;24.37;12.90;;;2.30;99.90;;;;;;5099338;28;20221;-67
2021/12/08 05:08:40;;;;;;;24.50;14.47;;;2.30;99.90;;;;;;5097251;28;20208;-67
2021/12/08 05:11:13;;;;;;;28.67;14.27;;;2.30;99.90;;;;;;5111871;28;20197;-65
2021/12/08 05:13:41;;;;;;;24.17;14.00;;;2.30;99.90;;;;;;5090293;28;20182;-66
2021/12/08 05:16:07;;;;;;;25.37;13.20;;;2.30;99.90;;;;;;5096699;28;20627;-65
2021/12/08 05:18:39;;;;;;;22.63;13.40;;;2.30;99.90;;;;;;5091676;28;20634;-68
2021/12/08 05:21:22;;;;;;;23.80;12.77;;;2.30;99.90;;;;;;5088014;28;20178;-66
2021/12/08 05:24:01;;;;;;;24.33;13.40;;;2.30;99.90;;;;;;5080740;28;20183;-66
2021/12/08 05:26:35;;;;;;;23.17;13.47;;;2.30;99.90;;;;;;5081445;28;20175;-67
2021/12/08 05:29:18;;;;;;;21.57;12.57;;;2.30;99.90;;;;;;5088488;28;20183;-67
2021/12/08 05:31:45;;;;;;;21.97;12.60;;;2.30;99.90;;;;;;5095910;28;20183;-68
2021/12/08 05:34:11;;;;;;;24.97;13.07;;;2.30;99.90;;;;;;5097472;28;20223;-69
2021/12/08 05:36:38;;;;;;;24.73;13.43;;;2.30;99.90;;;;;;5100975;28;20178;-67
2021/12/08 05:39:11;;;;;;;23.60;12.70;;;2.30;99.90;;;;;;5102050;28;20202;-69
2021/12/08 05:41:41;;;;;;;21.67;12.53;;;2.20;99.90;;;;;;5100802;28;20212;-69
2021/12/08 05:44:08;;;;;;;24.80;12.87;;;2.30;99.90;;;;;;5098792;28;20193;-68
2021/12/08 05:46:40;;;;;;;22.20;12.43;;;2.30;99.90;;;;;;5102603;28;20170;-68
2021/12/08 05:49:06;;;;;;;24.60;13.27;;;2.30;99.90;;;;;;5081804;28;20273;-71
2021/12/08 05:51:34;;;;;;;22.17;12.43;;;2.30;99.90;;;;;;5098827;28;20658;-68
2021/12/08 05:54:06;;;;;;;19.97;12.50;;;2.30;99.90;;;;;;5079288;28;20186;-71
2021/12/08 05:56:33;;;;;;;22.07;12.93;;;2.30;99.90;;;;;;5096226;28;20186;-68
2021/12/08 05:59:01;;;;;;;27.13;14.30;;;2.40;99.90;;;;;;5097010;28;20333;-65
2021/12/08 06:01:30;;;;;;;28.63;15.47;;;2.30;99.90;;;;;;5087003;28;20642;-67
2021/12/08 06:03:58;;;;;;;24.50;13.33;;;2.30;99.90;;;;;;5096809;28;20563;-65
2021/12/08 06:06:24;;;;;;;22.27;13.00;;;2.30;99.90;;;;;;5081530;28;20186;-66
2021/12/08 06:08:51;;;;;;;22.40;14.67;;;2.30;99.90;;;;;;5094787;28;20208;-70
2021/12/08 06:11:17;;;;;;;23.57;13.67;;;2.30;99.90;;;;;;5097326;28;20187;-67
2021/12/08 06:13:46;;;;;;;26.93;13.63;;;2.30;99.90;;;;;;5100002;28;20171;-66
2021/12/08 06:16:13;;;;;;;27.87;13.37;;;2.20;99.90;;;;;;5099425;28;20179;-68
2021/12/08 06:18:40;;;;;;;21.83;13.30;;;2.30;99.90;;;;;;5101457;28;20264;-67
2021/12/08 06:21:19;;;;;;;22.47;12.53;;;2.20;99.90;;;;;;5091092;28;20180;-67
2021/12/08 06:23:45;;;;;;;22.67;13.20;;;2.20;99.90;;;;;;5093768;28;20823;-68
2021/12/08 06:26:13;;;;;;;24.53;13.43;;;2.20;99.90;;;;;;5095294;28;20626;-66
2021/12/08 06:28:39;;;;;;;21.37;12.50;;;2.20;99.90;;;;;;5092696;28;20210;-65
2021/12/08 06:31:07;;;;;;;20.33;12.10;;;2.20;99.90;;;;;;5098545;28;20233;-68
2021/12/08 06:33:33;;;;;;;23.37;12.47;;;2.20;99.90;;;;;;5097640;28;20187;-66
2021/12/08 06:36:06;;;;;;;23.27;12.00;;;2.10;99.90;;;;;;5079062;28;20238;-67
2021/12/08 06:38:32;;;;;;;20.97;11.83;;;2.10;99.90;;;;;;5077921;28;20191;-65
2021/12/08 06:41:06;;;;;;;19.87;12.40;;;2.10;99.90;;;;;;5078904;28;20179;-69
2021/12/08 06:43:38;;;;;;;22.67;13.87;;;2.00;99.90;;;;;;5074089;28;21210;-68
2021/12/08 06:46:05;;;;;;;18.63;11.83;;;2.10;99.90;;;;;;5073348;28;20179;-71
2021/12/08 06:48:37;;;;;;;23.53;11.73;;;2.10;99.90;;;;;;5075777;28;20205;-66
2021/12/08 06:51:13;;;;;;;24.40;12.53;;;2.00;99.90;;;;;;5073826;28;20190;-68
2021/12/08 06:53:43;;;;;;;20.60;11.10;;;2.00;99.90;;;;;;5082342;28;20179;-65
2021/12/08 06:56:16;;;;;;;21.97;11.67;;;2.00;99.90;;;;;;5080315;28;20192;-65
2021/12/08 06:58:47;;;;;;;26.10;12.60;;;2.00;99.90;;;;;;5077791;28;20529;-70
2021/12/08 07:07:15;;;;;;;24.80;13.67;;;1.90;99.90;;;;;;5091668;28;20270;-70
2021/12/08 07:09:24;;;;;;;21.13;11.70;;;1.90;99.90;;;;;;5068677;28;20286;-70
2021/12/08 07:11:52;;;;;;;28.20;13.20;;;1.90;99.90;;;;;;5078780;28;20233;-66
2021/12/08 07:14:20;;;;;;;23.33;12.03;;;1.90;99.90;;;;;;5082895;28;20183;-66
2021/12/08 07:16:49;;;;;;;26.13;13.30;;;2.00;99.90;;;;;;5079675;28;20240;-66
2021/12/08 07:19:32;;;;;;;26.13;12.13;;;2.00;99.90;;;;;;5087604;28;20194;-68
2021/12/08 07:21:59;;;;;;;23.10;12.77;;;2.00;99.90;;;;;;5088236;28;20167;-68
2021/12/08 07:24:31;;;;;;;21.73;11.33;;;2.00;99.90;;;;;;5091496;28;20218;-66
2021/12/08 07:27:02;;;;;;;19.00;11.67;;;2.00;99.90;;;;;;5088788;28;20210;-67
2021/12/08 07:29:33;;;;;;;19.97;11.17;;;2.10;99.90;;;;;;5078740;28;20205;-71
2021/12/08 07:32:04;;;;;;;21.17;10.80;;;2.10;99.90;;;;;;5074791;28;20562;-67
2021/12/08 07:34:32;;;;;;;18.87;10.67;;;2.10;99.90;;;;;;5069204;28;20237;-67
2021/12/08 07:37:03;;;;;;;20.40;10.40;;;2.10;99.90;;;;;;5061117;28;20175;-68
2021/12/08 07:39:32;;;;;;;19.87;11.03;;;2.20;99.90;;;;;;5058505;28;20207;-71
2021/12/08 07:42:04;;;;;;;20.40;10.97;;;2.20;99.90;;;;;;5058667;28;20179;-70
2021/12/08 07:44:30;;;;;;;21.10;12.10;;;2.20;99.90;;;;;;5058293;28;20190;-67
2021/12/08 07:47:02;;;;;;;21.13;11.23;;;2.20;99.90;;;;;;5057253;28;20199;-65
2021/12/08 07:49:35;;;;;;;23.87;10.80;;;2.30;99.90;;;;;;5052825;28;20245;-69
2021/12/08 07:52:14;;;;;;;20.10;10.93;;;2.30;99.90;;;;;;5062277;28;20206;-66
2021/12/08 07:54:41;;;;;;;22.20;11.37;;;2.50;99.90;;;;;;5060259;28;20226;-67
2021/12/08 07:57:11;;;;;;;19.80;10.63;;;2.30;99.90;;;;;;5057509;28;20180;-66
2021/12/08 07:59:41;;;;;;;19.57;10.83;;;2.30;99.90;;;;;;5059750;28;20179;-65
2021/12/08 08:02:07;;;;;;;19.63;10.30;;;2.50;99.90;;;;;;5055426;28;20265;-67
2021/12/08 08:04:40;;;;;;;17.43;10.60;;;2.50;99.90;;;;;;5039836;28;20199;-67
2021/12/08 08:07:07;;;;;;;23.23;11.13;;;2.50;99.90;;;;;;5060628;28;20200;-67
2021/12/08 08:09:40;;;;;;;14.83;8.73;;;2.60;99.90;;;;;;5062965;28;20195;-66
2021/12/08 08:12:10;;;;;;;14.67;8.67;;;2.50;99.90;;;;;;5063524;28;20210;-66
2021/12/08 08:14:40;;;;;;;16.23;9.03;;;2.50;99.90;;;;;;5064987;28;20179;-66
2021/12/08 08:17:10;;;;;;;14.83;8.93;;;2.50;99.90;;;;;;5062373;28;20206;-74
2021/12/08 08:19:42;;;;;;;18.17;9.90;;;2.60;99.90;;;;;;5059479;28;20564;-67
2021/12/08 08:22:11;;;;;;;15.97;9.10;;;2.60;99.90;;;;;;5058827;28;20195;-68
2021/12/08 08:24:38;;;;;;;17.53;9.07;;;2.60;99.90;;;;;;5067590;28;20184;-66
2021/12/08 08:27:07;;;;;;;16.37;9.00;;;2.70;99.90;;;;;;5062685;28;20294;-66
2021/12/08 08:29:34;;;;;;;14.63;9.33;;;2.70;99.90;;;;;;5062433;28;20192;-66
2021/12/08 08:32:19;;;;;;;15.60;8.27;;;2.80;99.90;;;;;;5063234;28;20185;-65
2021/12/08 08:34:45;;;;;;;17.10;9.90;;;2.70;99.90;;;;;;5069631;28;20312;-66
2021/12/08 08:37:13;;;;;;;15.47;8.83;;;2.90;99.90;;;;;;5080406;28;20194;-65
2021/12/08 08:39:44;;;;;;;19.17;8.90;;;2.80;99.90;;;;;;5083925;28;20210;-66
2021/12/08 08:42:19;;;;;;;17.03;8.73;;;3.00;99.90;;;;;;5078291;28;20248;-66
2021/12/08 08:45:17;;;;;;;14.77;8.67;;;3.00;99.90;;;;;;5076546;28;20172;-66
2021/12/08 08:48:02;;;;;;;14.43;8.23;;;3.10;99.90;;;;;;5063339;28;20226;-69
2021/12/08 08:50:36;;;;;;;15.53;7.53;;;3.10;99.90;;;;;;5080971;28;20591;-69
2021/12/08 08:53:03;;;;;;;18.20;8.70;;;3.10;99.90;;;;;;5079850;28;20194;-66
2021/12/08 08:55:34;;;;;;;13.57;8.27;;;3.10;99.90;;;;;;5081325;28;20189;-69
2021/12/08 08:58:02;;;;;;;13.13;7.67;;;3.10;99.90;;;;;;5081648;28;20186;-66
2021/12/08 09:00:35;;;;;;;13.77;8.10;;;3.10;99.90;;;;;;5081013;28;20267;-69
2021/12/08 09:03:09;;;;;;;14.90;8.00;;;3.20;99.90;;;;;;5076251;28;20183;-66
2021/12/08 09:05:40;;;;;;;14.50;8.27;;;3.20;99.90;;;;;;5079372;28;20197;-67
2021/12/08 09:08:08;;;;;;;13.00;7.73;;;3.20;99.90;;;;;;5070634;28;20202;-69
2021/12/08 09:10:54;;;;;;;14.13;8.13;;;3.20;99.90;;;;;;5078746;28;20194;-69
2021/12/08 09:13:28;;;;;;;12.67;7.67;;;3.30;99.90;;;;;;5078825;28;20249;-66
2021/12/08 09:16:02;;;;;;;13.87;8.17;;;3.40;99.90;;;;;;5068622;28;20198;-66
2021/12/08 09:18:46;;;;;;;13.77;8.07;;;3.50;99.90;;;;;;5078219;28;20559;-65
2021/12/08 09:21:28;;;;;;;12.97;7.53;;;3.50;99.90;;;;;;5080933;28;20171;-66
2021/12/08 09:24:07;;;;;;;11.17;7.20;;;3.50;99.90;;;;;;5079685;28;20648;-65
2021/12/08 09:26:37;;;;;;;11.43;6.60;;;3.50;99.90;;;;;;5079923;28;20641;-71
2021/12/08 09:29:12;;;;;;;15.87;7.47;;;3.50;99.90;;;;;;5075646;28;20195;-66
2021/12/08 09:31:46;;;;;;;14.17;7.60;;;3.50;99.90;;;;;;5078518;28;20282;-66
2021/12/08 09:34:22;;;;;;;16.43;7.37;;;3.50;99.90;;;;;;5080335;28;20258;-68
2021/12/08 09:36:52;;;;;;;14.40;8.57;;;3.50;99.90;;;;;;5078800;28;20211;-68
2021/12/08 09:39:24;;;;;;;14.07;7.97;;;3.50;99.90;;;;;;5078371;28;20194;-70
2021/12/08 09:42:07;;;;;;;14.50;7.67;;;3.50;99.90;;;;;;5076990;28;20534;-67
2021/12/08 09:44:42;;;;;;;11.67;5.53;;;3.40;99.90;;;;;;5074432;28;20630;-69
2021/12/08 09:47:08;;;;;;;13.40;7.20;;;3.40;99.90;;;;;;5076234;28;20199;-66
2021/12/08 09:49:35;;;;;;;12.00;6.90;;;3.50;99.90;;;;;;5076084;28;20494;-66
2021/12/08 09:52:05;;;;;;;13.60;7.27;;;3.60;99.90;;;;;;5073645;28;20267;-67
2021/12/08 09:54:31;;;;;;;13.97;7.40;;;3.60;99.90;;;;;;5077596;28;20178;-66
2021/12/08 09:56:59;;;;;;;12.40;7.33;;;3.70;99.90;;;;;;5079058;28;20179;-67
2021/12/08 09:59:25;;;;;;;14.80;8.67;;;3.70;99.90;;;;;;5080969;28;20206;-67
2021/12/08 10:01:52;;;;;;;11.60;7.17;;;3.80;99.90;;;;;;5060994;28;20188;-66
2021/12/08 10:04:18;;;;;;;13.70;7.73;;;3.90;99.90;;;;;;5065168;28;20542;-69
2021/12/08 10:06:49;;;;;;;11.33;6.77;;;3.90;99.90;;;;;;5068215;28;20199;-67
2021/12/08 10:09:19;;;;;;;12.93;8.30;;;4.00;99.90;;;;;;5059195;28;20184;-67
2021/12/08 10:11:45;;;;;;;12.73;7.10;;;4.00;99.90;;;;;;5073937;28;20221;-67
2021/12/08 10:14:12;;;;;;;11.53;7.40;;;4.00;99.90;;;;;;5080666;28;20250;-69
2021/12/08 10:16:38;;;;;;;11.93;7.60;;;3.90;99.90;;;;;;5074061;28;20187;-67
2021/12/08 10:19:05;;;;;;;16.67;8.83;;;4.00;99.90;;;;;;5077252;28;20203;-70
2021/12/08 10:21:40;;;;;;;11.30;7.67;;;4.00;99.90;;;;;;5060155;28;20593;-70
2021/12/08 10:24:32;;;;;;;12.73;7.67;;;3.90;99.90;;;;;;5068520;28;20193;-67
2021/12/08 10:27:06;;;;;;;14.97;7.93;;;3.90;99.90;;;;;;5075684;28;20220;-68
2021/12/08 10:29:32;;;;;;;11.93;7.53;;;3.90;99.90;;;;;;5073196;28;20273;-66
2021/12/08 10:32:00;;;;;;;17.70;8.77;;;3.90;99.90;;;;;;5069098;28;20207;-66
2021/12/08 10:35:04;;;;;;;21.50;9.93;;;3.90;99.90;;;;;;5084970;28;20651;-66
2021/12/08 10:37:21;;;;;;;17.37;8.50;;;3.90;99.90;;;;;;5084045;28;20210;-66
2021/12/08 10:39:52;;;;;;;15.87;8.47;;;3.80;99.90;;;;;;5107225;28;20179;-67
2021/12/08 10:42:26;;;;;;;16.00;8.70;;;3.80;99.90;;;;;;5081877;28;20179;-66
2021/12/08 10:45:10;;;;;;;13.40;8.57;;;3.90;99.90;;;;;;5082795;28;20313;-66
2021/12/08 10:47:50;;;;;;;15.50;8.20;;;3.90;99.90;;;;;;5093882;28;20205;-67
2021/12/08 10:56:08;;;;;;;14.13;8.93;;;3.60;99.90;;;;;;5096158;28;20249;-69
2021/12/08 10:58:39;;;;;;;15.70;9.93;;;3.80;99.90;;;;;;5097931;28;20194;-67
2021/12/08 11:01:24;;;;;;;16.03;9.30;;;3.70;99.90;;;;;;5098504;28;20540;-65
2021/12/08 11:04:01;;;;;;;17.40;8.67;;;3.70;99.90;;;;;;5091733;28;20629;-69
2021/12/08 11:06:32;;;;;;;19.73;10.27;;;3.70;99.90;;;;;;5093523;28;20321;-69
2021/12/08 11:08:57;;;;;;;18.17;9.80;;;3.60;99.90;;;;;;5099430;28;20209;-70
2021/12/08 11:11:28;;;;;;;17.43;9.97;;;3.60;99.90;;;;;;5096763;28;20293;-66
2021/12/08 11:13:57;;;;;;;26.23;12.30;;;3.60;99.90;;;;;;5093708;28;20895;-65
2021/12/08 11:16:26;;;;;;;19.87;9.87;;;3.60;99.90;;;;;;5097655;28;20606;-67
2021/12/08 11:18:57;;;;;;;22.37;10.70;;;3.60;99.90;;;;;;5092795;28;20269;-67
2021/12/08 11:21:31;;;;;;;26.73;13.00;;;3.50;99.90;;;;;;5094212;28;20186;-66
2021/12/08 11:23:59;;;;;;;17.50;9.97;;;3.50;99.90;;;;;;5090993;28;20513;-74
2021/12/08 11:26:37;;;;;;;21.23;9.90;;;3.60;99.90;;;;;;5098019;28;20222;-67
2021/12/08 11:29:15;;;;;;;20.47;10.80;;;3.50;99.90;;;;;;5098383;28;20300;-68
2021/12/08 11:31:50;;;;;;;18.67;10.40;;;3.50;99.90;;;;;;5100099;28;20185;-68
2021/12/08 11:34:28;;;;;;;21.23;10.53;;;3.50;99.90;;;;;;5098591;28;20229;-66
2021/12/08 11:37:04;;;;;;;19.43;9.60;;;3.60;99.90;;;;;;5096670;28;20287;-70
2021/12/08 11:39:33;;;;;;;19.37;10.77;;;3.60;99.90;;;;;;5097840;28;20177;-66
2021/12/08 11:42:06;;;;;;;17.13;8.47;;;3.50;99.90;;;;;;5099523;28;20197;-67
2021/12/08 11:44:34;;;;;;;17.07;7.97;;;3.50;99.90;;;;;;5097580;28;20959;-68
2021/12/08 11:47:04;;;;;;;17.33;10.40;;;3.40;99.90;;;;;;5107943;28;20174;-68
2021/12/08 11:49:30;;;;;;;19.77;10.60;;;3.30;99.90;;;;;;5103304;28;20179;-70
2021/12/08 11:52:00;;;;;;;16.43;9.50;;;3.30;99.90;;;;;;5097792;28;20228;-66
2021/12/08 11:54:35;;;;;;;18.23;10.07;;;3.20;99.90;;;;;;5101085;28;20518;-66
2021/12/08 11:57:20;;;;;;;19.23;10.03;;;3.10;99.90;;;;;;5095562;28;20177;-68
2021/12/08 11:59:49;;;;;;;20.43;11.07;;;3.20;99.90;;;;;;5097796;28;20192;-66
2021/12/08 12:02:18;;;;;;;20.27;9.80;;;3.00;99.90;;;;;;5095685;28;20190;-66
2021/12/08 12:04:44;;;;;;;19.63;10.37;;;3.00;99.90;;;;;;5088953;28;20185;-71
2021/12/08 12:07:11;;;;;;;18.43;10.93;;;3.00;99.90;;;;;;5093814;28;20571;-65
2021/12/08 12:09:38;;;;;;;22.97;12.03;;;3.00;99.90;;;;;;5100008;28;20179;-67
2021/12/08 12:12:05;;;;;;;20.83;10.80;;;3.00;99.90;;;;;;5089497;28;20178;-67
2021/12/08 12:14:31;;;;;;;24.57;11.13;;;3.00;99.90;;;;;;5099042;28;20187;-67
2021/12/08 12:16:57;;;;;;;18.60;10.77;;;2.90;99.90;;;;;;5080926;28;20244;-66
2021/12/08 12:19:25;;;;;;;22.03;11.13;;;3.00;99.90;;;;;;5088490;28;20244;-66
2021/12/08 12:22:13;;;;;;;23.10;11.73;;;2.90;99.90;;;;;;5085894;28;20270;-65
2021/12/08 12:24:47;;;;;;;18.07;10.03;;;2.90;99.90;;;;;;5097502;28;20524;-66
2021/12/08 12:27:48;;;;;;;19.70;10.37;;;2.70;99.90;;;;;;5074499;28;20210;-67
2021/12/08 12:30:54;;;;;;;23.30;11.33;;;2.80;99.90;;;;;;5091124;28;20640;-66
2021/12/08 12:33:22;;;;;;;23.17;12.03;;;2.70;99.90;;;;;;5058765;28;20206;-66
2021/12/08 12:35:54;;;;;;;22.53;11.47;;;2.80;99.90;;;;;;5098826;28;20279;-68
2021/12/08 12:38:39;;;;;;;23.87;12.43;;;2.60;99.90;;;;;;5100150;28;20182;-65
2021/12/08 12:41:06;;;;;;;25.73;11.60;;;2.60;99.90;;;;;;5092613;28;20222;-66
2021/12/08 12:43:38;;;;;;;23.20;12.17;;;2.70;99.90;;;;;;5091510;28;20558;-65
2021/12/08 12:46:12;;;;;;;23.33;11.50;;;2.70;99.90;;;;;;5100115;28;20217;-67
2021/12/08 12:48:38;;;;;;;22.43;11.17;;;2.60;99.90;;;;;;5082771;28;20589;-66
2021/12/08 12:51:11;;;;;;;23.43;11.10;;;2.50;99.90;;;;;;5087867;28;20809;-66
2021/12/08 12:53:51;;;;;;;19.07;11.07;;;2.50;99.90;;;;;;5081235;28;20182;-66
2021/12/08 12:56:35;;;;;;;24.17;12.03;;;2.50;99.90;;;;;;5079565;28;20182;-65
2021/12/08 12:59:17;;;;;;;23.53;11.83;;;2.50;99.90;;;;;;5084217;28;20266;-67
2021/12/08 13:01:46;;;;;;;21.60;11.43;;;2.50;99.90;;;;;;5087065;28;20197;-67
2021/12/08 13:04:21;;;;;;;23.70;11.60;;;2.50;99.90;;;;;;5081629;28;20171;-66
2021/12/08 13:07:01;;;;;;;21.80;11.30;;;2.40;99.90;;;;;;5078459;28;20178;-65
2021/12/08 13:09:39;;;;;;;26.77;13.23;;;2.40;99.90;;;;;;5096701;28;20155;-67
2021/12/08 13:12:14;;;;;;;19.90;11.37;;;2.50;99.90;;;;;;5096651;28;20507;-66
2021/12/08 13:14:41;;;;;;;25.60;12.07;;;2.30;99.90;;;;;;5096369;28;20245;-67
2021/12/08 13:17:11;;;;;;;22.03;11.77;;;2.40;99.90;;;;;;5091101;28;20187;-64
2021/12/08 13:19:40;;;;;;;23.47;11.43;;;2.30;99.90;;;;;;5094546;28;20181;-66
2021/12/08 13:22:06;;;;;;;27.97;11.77;;;2.30;99.90;;;;;;5103288;28;20236;-66
2021/12/08 13:24:38;;;;;;;23.07;13.83;;;2.30;99.90;;;;;;5096744;28;20595;-66
2021/12/08 13:27:09;;;;;;;27.23;13.37;;;2.30;99.90;;;;;;5092406;28;20776;-66
2021/12/08 13:29:39;;;;;;;26.50;12.20;;;2.20;99.90;;;;;;5097240;28;20218;-66
2021/12/08 13:32:12;;;;;;;22.70;12.60;;;2.30;99.90;;;;;;5099197;28;20194;-68
2021/12/08 13:34:41;;;;;;;25.73;12.20;;;2.20;99.90;;;;;;5096609;28;20229;-66
2021/12/08 13:37:25;;;;;;;26.80;12.57;;;2.30;99.90;;;;;;5084828;28;20183;-66
2021/12/08 13:39:53;;;;;;;20.73;11.33;;;2.10;99.90;;;;;;5084315;28;20239;-68
2021/12/08 13:42:30;;;;;;;20.87;11.87;;;2.20;99.90;;;;;;5092785;28;20189;-67
2021/12/08 13:44:58;;;;;;;21.73;11.70;;;2.10;99.90;;;;;;5104586;28;20169;-65
2021/12/08 13:47:32;;;;;;;23.20;11.13;;;2.10;99.90;;;;;;5116331;28;20239;-67
2021/12/08 13:50:09;;;;;;;27.27;12.30;;;2.10;99.90;;;;;;5115292;28;20174;-66